createdAt,value
2018-12-19T00:02:57.961Z,86.78
2018-12-19T00:09:16.797Z,88.03
2018-12-19T00:12:21.303Z,88.48
2018-12-19T00:15:25.936Z,88.43
2018-12-19T00:18:30.469Z,87.83
2018-12-19T00:21:35.123Z,87.97
2018-12-19T00:24:39.615Z,87.40
2018-12-19T00:27:44.448Z,87.59
2018-12-19T00:30:49.114Z,88.32
2018-12-19T00:33:53.737Z,88.01
2018-12-19T00:36:58.282Z,87.90
2018-12-19T00:40:02.824Z,88.35
2018-12-19T00:43:07.381Z,88.31
2018-12-19T00:46:11.875Z,87.46
2018-12-19T00:49:16.492Z,88.07
2018-12-19T00:52:21.143Z,88.12
2018-12-19T00:55:25.831Z,88.60
2018-12-19T00:58:30.534Z,88.82
2018-12-19T01:01:35.088Z,88.49
2018-12-19T01:04:39.687Z,88.30
2018-12-19T01:07:45.280Z,87.84
2018-12-19T01:10:49.748Z,88.03
2018-12-19T01:13:54.334Z,88.74
2018-12-19T01:16:58.804Z,88.19
2018-12-19T01:20:03.417Z,88.62
2018-12-19T01:23:08.221Z,88.53
2018-12-19T01:26:12.722Z,88.02
2018-12-19T01:29:17.233Z,89.55
2018-12-19T01:32:21.852Z,89.24
2018-12-19T01:35:26.312Z,89.39
2018-12-19T01:38:30.978Z,89.94
2018-12-19T01:41:35.530Z,89.91
2018-12-19T01:44:40.135Z,89.97
2018-12-19T01:47:45.138Z,89.58
2018-12-19T01:50:49.678Z,89.65
2018-12-19T01:53:54.335Z,89.40
2018-12-19T01:56:58.859Z,88.97
2018-12-19T02:00:03.577Z,89.81
2018-12-19T02:03:08.308Z,89.68
2018-12-19T02:06:12.853Z,89.61
2018-12-19T02:09:17.510Z,89.32
2018-12-19T02:12:22.245Z,89.62
2018-12-19T02:15:26.752Z,89.36
2018-12-19T02:18:31.202Z,90.54
2018-12-19T02:21:35.734Z,90.34
2018-12-19T02:24:40.369Z,90.51
2018-12-19T02:27:45.063Z,91.11
2018-12-19T02:30:50.026Z,90.88
2018-12-19T02:33:55.004Z,90.16
2018-12-19T02:36:59.625Z,90.29
2018-12-19T02:40:04.305Z,89.65
2018-12-19T02:43:08.860Z,89.36
2018-12-19T02:46:13.400Z,89.50
2018-12-19T02:49:18.003Z,89.36
2018-12-19T02:52:22.832Z,89.22
2018-12-19T02:55:27.529Z,89.55
2018-12-19T02:58:32.036Z,89.67
2018-12-19T03:01:36.577Z,88.78
2018-12-19T03:04:41.212Z,89.04
2018-12-19T03:07:45.650Z,88.19
2018-12-19T03:10:50.524Z,88.92
2018-12-19T03:13:56.765Z,88.53
2018-12-19T03:17:01.481Z,88.54
2018-12-19T03:20:06.752Z,88.14
2018-12-19T03:23:11.255Z,88.65
2018-12-19T03:26:15.803Z,88.23
2018-12-19T03:29:20.409Z,88.69
2018-12-19T03:32:25.053Z,88.81
2018-12-19T03:35:29.665Z,88.51
2018-12-19T03:38:34.163Z,88.95
2018-12-19T03:41:38.777Z,88.78
2018-12-19T03:44:43.288Z,88.85
2018-12-19T03:47:47.845Z,88.76
2018-12-19T03:50:52.424Z,88.48
2018-12-19T03:53:56.806Z,88.54
2018-12-19T03:57:01.485Z,88.20
2018-12-19T04:00:08.104Z,87.98
2018-12-19T04:03:12.645Z,88.32
2018-12-19T04:06:17.401Z,88.34
2018-12-19T04:09:22.006Z,88.20
2018-12-19T04:12:26.487Z,88.10
2018-12-19T04:15:31.319Z,88.01
2018-12-19T04:18:35.854Z,88.76
2018-12-19T04:21:40.664Z,89.33
2018-12-19T04:24:45.311Z,89.52
2018-12-19T04:27:49.921Z,89.48
2018-12-19T04:30:54.567Z,89.68
2018-12-19T04:33:59.122Z,89.21
2018-12-19T04:37:03.665Z,89.23
2018-12-19T04:40:08.304Z,89.00
2018-12-19T04:43:12.990Z,89.60
2018-12-19T04:46:17.558Z,89.14
2018-12-19T04:49:22.249Z,89.13
2018-12-19T04:52:26.902Z,88.46
2018-12-19T04:55:31.488Z,88.09
2018-12-19T04:58:36.067Z,88.69
2018-12-19T05:01:40.625Z,89.21
2018-12-19T05:04:45.370Z,90.11
2018-12-19T05:07:50.307Z,90.40
2018-12-19T05:10:55.828Z,90.57
2018-12-19T05:14:00.320Z,90.37
2018-12-19T05:17:07.860Z,90.00
2018-12-19T05:20:12.860Z,90.41
2018-12-19T05:23:17.427Z,90.34
2018-12-19T05:26:21.993Z,90.30
2018-12-19T05:29:26.490Z,90.07
2018-12-19T05:32:31.136Z,90.18
2018-12-19T05:35:35.753Z,90.73
2018-12-19T05:38:40.264Z,90.10
2018-12-19T05:41:45.316Z,90.10
2018-12-19T05:44:49.866Z,90.41
2018-12-19T05:47:54.413Z,90.25
2018-12-19T05:50:59.148Z,90.38
2018-12-19T05:54:04.025Z,90.18
2018-12-19T05:57:10.184Z,89.68
2018-12-19T06:00:15.011Z,89.91
2018-12-19T06:03:19.739Z,89.93
2018-12-19T06:06:24.273Z,89.94
2018-12-19T06:09:28.811Z,90.44
2018-12-19T06:12:33.363Z,90.50
2018-12-19T06:15:38.001Z,90.00
2018-12-19T06:18:42.564Z,89.92
2018-12-19T06:21:47.107Z,89.73
2018-12-19T06:24:51.686Z,89.82
2018-12-19T06:27:56.547Z,90.00
2018-12-19T06:31:01.154Z,90.04
2018-12-19T06:34:05.598Z,89.81
2018-12-19T06:37:10.238Z,89.95
2018-12-19T06:40:14.863Z,89.53
2018-12-19T06:43:19.565Z,90.05
2018-12-19T06:46:24.305Z,91.12
2018-12-19T06:49:29.156Z,91.73
2018-12-19T06:52:34.483Z,91.58
2018-12-19T06:55:39.045Z,91.45
2018-12-19T06:58:43.550Z,90.86
2018-12-19T07:01:48.313Z,91.23
2018-12-19T07:04:52.964Z,91.30
2018-12-19T07:07:57.746Z,92.09
2018-12-19T07:11:02.402Z,92.12
2018-12-19T07:14:07.217Z,92.74
2018-12-19T07:17:12.795Z,92.88
2018-12-19T07:20:17.345Z,93.75
2018-12-19T07:23:21.888Z,94.04
2018-12-19T07:26:26.601Z,94.22
2018-12-19T07:29:31.210Z,93.71
2018-12-19T07:32:35.784Z,93.00
2018-12-19T07:35:40.350Z,92.62
2018-12-19T07:38:45.024Z,92.17
2018-12-19T07:41:49.526Z,91.54
2018-12-19T07:44:55.863Z,91.82
2018-12-19T07:48:00.369Z,92.10
2018-12-19T07:51:04.997Z,92.24
2018-12-19T07:54:09.566Z,92.64
2018-12-19T07:57:14.081Z,92.17
2018-12-19T08:00:18.634Z,92.17
2018-12-19T08:03:24.467Z,92.54
2018-12-19T08:06:28.957Z,92.79
2018-12-19T08:09:33.451Z,93.06
2018-12-19T08:12:38.097Z,92.32
2018-12-19T08:15:42.735Z,92.56
2018-12-19T08:18:47.358Z,92.86
2018-12-19T08:21:51.930Z,91.84
2018-12-19T08:24:56.496Z,92.01
2018-12-19T08:28:01.122Z,92.34
2018-12-19T08:31:05.776Z,92.45
2018-12-19T08:34:10.368Z,92.24
2018-12-19T08:37:14.890Z,91.82
2018-12-19T08:40:19.489Z,91.27
2018-12-19T08:43:24.082Z,91.61
2018-12-19T08:46:28.551Z,91.05
2018-12-19T08:49:33.144Z,91.43
2018-12-19T08:52:37.682Z,91.16
2018-12-19T08:55:42.385Z,91.01
2018-12-19T08:58:46.947Z,91.21
2018-12-19T09:01:51.636Z,91.94
2018-12-19T09:04:56.282Z,91.58
2018-12-19T09:08:00.855Z,91.97
2018-12-19T09:11:06.031Z,91.24
2018-12-19T09:14:10.682Z,91.45
2018-12-19T09:17:15.386Z,91.01
2018-12-19T09:20:20.358Z,89.91
2018-12-19T09:23:24.983Z,89.46
2018-12-19T09:26:29.773Z,89.36
2018-12-19T09:32:54.584Z,89.92
2018-12-19T09:35:59.258Z,91.02
2018-12-19T09:39:05.741Z,91.50
2018-12-19T09:42:10.302Z,91.50
2018-12-19T09:45:14.940Z,91.65
2018-12-19T09:48:19.806Z,91.63
2018-12-19T09:51:24.482Z,91.57
2018-12-19T09:54:29.078Z,91.34
2018-12-19T09:57:33.656Z,91.37
2018-12-19T10:00:38.762Z,91.32
2018-12-19T10:03:43.307Z,90.97
2018-12-19T10:06:47.927Z,92.37
2018-12-19T10:09:52.479Z,92.54
2018-12-19T10:12:56.944Z,93.04
2018-12-19T10:16:01.617Z,92.07
2018-12-19T10:19:06.157Z,92.13
2018-12-19T10:22:10.605Z,91.60
2018-12-19T10:25:15.986Z,90.96
2018-12-19T10:31:39.314Z,90.55
2018-12-19T10:34:44.173Z,91.51
2018-12-19T10:37:48.807Z,92.10
2018-12-19T10:40:54.092Z,92.42
2018-12-19T10:43:58.997Z,92.92
2018-12-19T10:47:03.526Z,92.00
2018-12-19T10:50:10.884Z,91.28
2018-12-19T10:53:15.472Z,90.89
2018-12-19T10:56:19.985Z,90.36
2018-12-19T10:59:24.748Z,90.26
2018-12-19T11:02:29.239Z,90.16
2018-12-19T11:05:33.860Z,91.23
2018-12-19T11:08:38.334Z,90.72
2018-12-19T11:11:42.858Z,91.12
2018-12-19T11:14:47.570Z,91.37
2018-12-19T11:17:58.716Z,90.43
2018-12-19T11:21:03.453Z,90.78
2018-12-19T11:24:08.389Z,90.53
2018-12-19T11:27:12.941Z,90.83
2018-12-19T11:30:17.525Z,91.43
2018-12-19T11:33:22.036Z,90.41
2018-12-19T11:36:26.801Z,92.06
2018-12-19T11:39:31.347Z,92.98
2018-12-19T11:42:36.047Z,92.85
2018-12-19T11:45:40.613Z,93.16
2018-12-19T11:48:45.193Z,93.17
2018-12-19T11:51:49.894Z,93.13
2018-12-19T11:54:54.307Z,93.38
2018-12-19T11:57:58.890Z,92.97
2018-12-19T12:01:03.485Z,92.52
2018-12-19T12:04:07.895Z,92.03
2018-12-19T12:07:12.809Z,91.95
2018-12-19T12:10:17.323Z,92.28
2018-12-19T12:13:21.888Z,91.64
2018-12-19T12:16:27.986Z,91.19
2018-12-19T12:19:32.815Z,91.46
2018-12-19T12:22:37.505Z,92.08
2018-12-19T12:28:55.323Z,91.45
2018-12-19T12:31:59.984Z,91.99
2018-12-19T12:35:05.387Z,91.75
2018-12-19T12:38:10.007Z,92.22
2018-12-19T12:41:14.520Z,92.03
2018-12-19T12:44:19.068Z,92.08
2018-12-19T12:47:23.683Z,92.72
2018-12-19T12:50:28.200Z,92.86
2018-12-19T12:53:33.335Z,92.58
2018-12-19T12:56:37.829Z,92.64
2018-12-19T12:59:42.870Z,92.89
2018-12-19T13:02:47.527Z,93.07
2018-12-19T13:05:52.066Z,93.26
2018-12-19T13:08:59.585Z,92.71
2018-12-19T13:12:04.252Z,92.60
2018-12-19T13:15:09.486Z,92.60
2018-12-19T13:18:14.767Z,93.04
2018-12-19T13:21:19.522Z,92.29
2018-12-19T13:24:24.073Z,92.18
2018-12-19T13:27:28.696Z,92.21
2018-12-19T13:30:33.379Z,91.99
2018-12-19T13:33:38.102Z,90.97
2018-12-19T13:39:56.921Z,91.28
2018-12-19T13:43:01.613Z,90.72
2018-12-19T13:46:06.158Z,91.13
2018-12-19T13:49:11.806Z,91.08
2018-12-19T13:52:16.286Z,91.45
2018-12-19T13:55:20.831Z,92.20
2018-12-19T13:58:25.392Z,92.42
2018-12-19T14:01:29.898Z,91.84
2018-12-19T14:04:35.344Z,91.71
2018-12-19T14:07:39.957Z,91.47
2018-12-19T14:10:44.439Z,92.55
2018-12-19T14:13:48.988Z,92.53
2018-12-19T14:16:53.682Z,92.66
2018-12-19T14:19:58.264Z,92.79
2018-12-19T14:23:02.897Z,92.04
2018-12-19T14:26:07.614Z,91.28
2018-12-19T14:29:12.203Z,92.00
2018-12-19T14:32:16.812Z,91.88
2018-12-19T14:35:21.509Z,91.98
2018-12-19T14:38:26.125Z,91.46
2018-12-19T14:41:30.776Z,91.87
2018-12-19T14:44:35.419Z,91.98
2018-12-19T14:47:40.131Z,92.29
2018-12-19T14:50:44.611Z,92.00
2018-12-19T14:53:49.384Z,92.52
2018-12-19T14:56:54.995Z,92.15
2018-12-19T14:59:59.625Z,92.06
2018-12-19T15:03:04.348Z,92.65
2018-12-19T15:06:11.909Z,92.73
2018-12-19T15:09:16.499Z,91.98
2018-12-19T15:12:25.724Z,92.87
2018-12-19T15:15:28.012Z,92.74
2018-12-19T15:18:32.605Z,93.01
2018-12-19T15:21:37.424Z,93.76
2018-12-19T15:24:41.907Z,93.45
2018-12-19T15:27:46.489Z,92.97
2018-12-19T15:30:51.107Z,93.50
2018-12-19T15:33:56.098Z,93.59
2018-12-19T15:37:01.319Z,94.08
2018-12-19T15:40:06.700Z,93.34
2018-12-19T15:43:11.282Z,93.53
2018-12-19T15:46:15.817Z,93.89
2018-12-19T15:49:20.423Z,93.76
2018-12-19T15:52:25.069Z,93.04
2018-12-19T15:55:29.709Z,93.50
2018-12-19T15:58:34.351Z,92.90
2018-12-19T16:01:38.956Z,92.85
2018-12-19T16:04:43.573Z,93.29
2018-12-19T16:07:48.147Z,93.32
2018-12-19T16:10:52.729Z,93.18
2018-12-19T16:13:57.256Z,93.62
2018-12-19T16:17:01.903Z,93.55
2018-12-19T16:20:08.459Z,92.98
2018-12-19T16:23:13.072Z,93.78
2018-12-19T16:26:17.687Z,93.41
2018-12-19T16:29:22.388Z,93.90
2018-12-19T16:32:27.062Z,94.10
2018-12-19T16:35:31.560Z,94.52
2018-12-19T16:38:36.152Z,95.36
2018-12-19T16:41:40.641Z,95.40
2018-12-19T16:44:45.207Z,95.81
2018-12-19T16:47:49.778Z,95.13
2018-12-19T16:50:54.418Z,95.04
2018-12-19T16:53:59.595Z,95.44
2018-12-19T16:57:04.176Z,94.46
2018-12-19T17:00:10.676Z,94.74
2018-12-19T17:03:15.197Z,95.06
2018-12-19T17:06:19.681Z,93.98
2018-12-19T17:09:24.357Z,93.47
2018-12-19T17:12:28.926Z,93.70
2018-12-19T17:15:33.408Z,94.09
2018-12-19T17:18:38.048Z,94.83
2018-12-19T17:21:42.562Z,95.42
2018-12-19T17:24:47.245Z,95.50
2018-12-19T17:27:51.740Z,95.76
2018-12-19T17:30:56.225Z,95.94
2018-12-19T17:34:00.717Z,95.73
2018-12-19T17:37:05.287Z,95.74
2018-12-19T17:40:09.863Z,95.64
2018-12-19T17:43:14.420Z,95.73
2018-12-19T17:46:19.122Z,95.67
2018-12-19T17:49:23.687Z,95.85
2018-12-19T17:52:28.191Z,95.95
2018-12-19T17:55:32.715Z,96.00
2018-12-19T17:58:37.267Z,96.17
2018-12-19T18:01:42.136Z,96.34
2018-12-19T18:04:46.680Z,96.80
2018-12-19T18:07:51.478Z,96.37
2018-12-19T18:10:56.015Z,96.65
2018-12-19T18:14:00.913Z,96.52
2018-12-19T18:17:05.616Z,96.76
2018-12-19T18:20:10.433Z,96.37
2018-12-19T18:23:15.086Z,96.46
2018-12-19T18:26:19.681Z,96.85
2018-12-19T18:29:24.182Z,96.40
2018-12-19T18:32:28.677Z,96.75
2018-12-19T18:35:33.217Z,97.05
2018-12-19T18:38:37.868Z,96.77
2018-12-19T18:41:42.571Z,96.79
2018-12-19T18:44:47.026Z,97.00
2018-12-19T18:47:51.831Z,97.02
2018-12-19T18:50:56.366Z,96.92
2018-12-19T18:54:00.992Z,97.40
2018-12-19T18:57:05.637Z,97.36
2018-12-19T19:00:11.083Z,97.18
2018-12-19T19:03:15.714Z,97.80
2018-12-19T19:06:20.456Z,97.67
2018-12-19T19:09:25.123Z,97.83
2018-12-19T19:12:29.682Z,97.94
2018-12-19T19:15:34.376Z,97.69
2018-12-19T19:18:39.078Z,98.04
2018-12-19T19:21:43.631Z,97.90
2018-12-19T19:24:48.186Z,97.81
2018-12-19T19:27:52.702Z,98.30
2018-12-19T19:30:57.329Z,97.93
2018-12-19T19:34:01.914Z,98.14
2018-12-19T19:37:06.611Z,97.64
2018-12-19T19:40:11.644Z,98.01
2018-12-19T19:43:16.218Z,97.61
2018-12-19T19:46:20.685Z,97.97
2018-12-19T19:49:25.725Z,97.74
2018-12-19T19:52:30.250Z,97.34
2018-12-19T19:55:34.806Z,97.49
2018-12-19T19:58:39.582Z,97.61
2018-12-19T20:01:44.218Z,97.75
2018-12-19T20:04:48.749Z,97.73
2018-12-19T20:07:53.377Z,97.61
2018-12-19T20:10:57.925Z,97.02
2018-12-19T20:14:02.479Z,97.49
2018-12-19T20:17:07.077Z,97.01
2018-12-19T20:20:11.824Z,96.92
2018-12-19T20:23:16.314Z,96.84
2018-12-19T20:26:21.071Z,96.72
2018-12-19T20:29:25.624Z,97.46
2018-12-19T20:32:30.218Z,97.55
2018-12-19T20:35:34.983Z,97.22
2018-12-19T20:38:39.528Z,96.80
2018-12-19T20:41:44.148Z,97.11
2018-12-19T20:44:48.713Z,96.66
2018-12-19T20:47:53.321Z,96.66
2018-12-19T20:50:57.913Z,97.27
2018-12-19T20:54:02.475Z,96.89
2018-12-19T20:57:06.810Z,96.19
2018-12-19T21:00:11.812Z,96.61
2018-12-19T21:03:16.475Z,95.92
2018-12-19T21:06:21.137Z,95.82
2018-12-19T21:09:25.692Z,95.88
2018-12-19T21:12:30.317Z,95.74
2018-12-19T21:15:34.888Z,96.29
2018-12-19T21:18:49.380Z,96.13
2018-12-19T21:21:54.010Z,95.96
2018-12-19T21:24:58.593Z,96.00
2018-12-19T21:28:03.228Z,96.09
2018-12-19T21:31:08.600Z,96.52
2018-12-19T21:34:13.146Z,96.78
2018-12-19T21:37:17.830Z,96.87
2018-12-19T21:40:22.530Z,97.12
2018-12-19T21:43:28.793Z,97.54
2018-12-19T21:46:33.554Z,97.36
2018-12-19T21:49:38.215Z,97.62
2018-12-19T21:52:42.884Z,97.76
2018-12-19T21:55:47.461Z,97.97
2018-12-19T21:58:51.972Z,97.47
2018-12-19T22:01:56.440Z,97.48
2018-12-19T22:05:00.993Z,97.55
2018-12-19T22:08:05.965Z,97.31
2018-12-19T22:11:10.722Z,97.53
2018-12-19T22:14:15.577Z,98.08
2018-12-19T22:17:25.502Z,97.80
2018-12-19T22:20:30.045Z,97.83
2018-12-19T22:23:34.714Z,97.71
2018-12-19T22:26:39.391Z,97.79
2018-12-19T22:29:44.152Z,97.71
2018-12-19T22:32:48.885Z,97.70
2018-12-19T22:35:53.854Z,97.42
2018-12-19T22:38:58.459Z,97.79
2018-12-19T22:42:03.293Z,97.62
2018-12-19T22:45:08.257Z,98.14
2018-12-19T22:48:13.051Z,98.15
2018-12-19T22:51:17.661Z,98.06
2018-12-19T22:54:22.335Z,97.86
2018-12-19T22:57:26.969Z,98.00
2018-12-19T23:00:36.150Z,97.39
2018-12-19T23:03:45.972Z,97.39
2018-12-19T23:06:50.730Z,97.57
2018-12-19T23:09:55.331Z,97.51
2018-12-19T23:12:59.960Z,97.73
2018-12-19T23:16:04.658Z,98.21
2018-12-19T23:19:09.319Z,97.98
2018-12-19T23:22:13.833Z,98.42
2018-12-19T23:25:18.704Z,98.54
2018-12-19T23:28:23.253Z,98.72
2018-12-19T23:31:28.079Z,98.55
2018-12-19T23:34:32.809Z,98.31
2018-12-19T23:37:37.508Z,98.28
2018-12-19T23:40:42.144Z,98.08
2018-12-19T23:43:46.853Z,98.09
2018-12-19T23:46:52.040Z,98.19
2018-12-19T23:49:56.896Z,98.52
2018-12-19T23:53:01.546Z,98.73
2018-12-19T23:56:06.171Z,99.09
2018-12-19T23:59:10.718Z,98.61
